createdAt,value
2023-04-19T00:04:19.144Z,10.61
2023-04-19T00:09:22.078Z,10.53
2023-04-19T00:14:26.178Z,10.56
2023-04-19T00:19:28.875Z,10.52
2023-04-19T00:24:32.064Z,10.56
2023-04-19T00:29:36.151Z,10.57
2023-04-19T00:34:38.889Z,10.49
2023-04-19T00:39:41.591Z,10.42
2023-04-19T00:44:45.712Z,10.43
2023-04-19T00:49:48.470Z,10.37
2023-04-19T00:54:52.287Z,10.37
2023-04-19T00:59:58.131Z,10.37
2023-04-19T01:05:01.006Z,10.31
2023-04-19T01:10:03.923Z,10.35
2023-04-19T01:15:09.699Z,10.31
2023-04-19T01:20:13.497Z,10.22
2023-04-19T01:25:17.586Z,10.20
2023-04-19T01:30:20.310Z,10.16
2023-04-19T01:35:23.075Z,10.05
2023-04-19T01:40:28.393Z,10.04
2023-04-19T01:45:33.093Z,9.93
2023-04-19T01:50:36.214Z,10.02
2023-04-19T01:55:41.894Z,10.00
2023-04-19T02:00:44.646Z,9.97
2023-04-19T02:05:47.316Z,9.89
2023-04-19T02:10:51.452Z,9.76
2023-04-19T02:15:54.201Z,9.64
2023-04-19T02:20:57.782Z,9.57
2023-04-19T02:26:03.174Z,9.44
2023-04-19T02:31:06.892Z,9.33
2023-04-19T02:36:11.006Z,9.37
2023-04-19T02:41:15.714Z,9.29
2023-04-19T02:46:18.436Z,9.32
2023-04-19T02:51:21.240Z,9.29
2023-04-19T02:56:25.360Z,9.06
2023-04-19T03:01:29.219Z,9.11
2023-04-19T03:06:32.432Z,9.16
2023-04-19T03:11:36.955Z,9.13
2023-04-19T03:16:39.946Z,9.00
2023-04-19T03:21:42.997Z,8.98
2023-04-19T03:26:47.212Z,8.87
2023-04-19T03:31:51.127Z,8.94
2023-04-19T03:36:54.918Z,8.69
2023-04-19T03:41:59.188Z,8.52
2023-04-19T03:47:27.930Z,8.66
2023-04-19T03:52:33.355Z,8.60
2023-04-19T03:57:37.654Z,8.60
2023-04-19T04:02:50.002Z,8.55
2023-04-19T04:07:52.926Z,8.55
2023-04-19T04:12:58.448Z,8.53
2023-04-19T04:18:10.837Z,8.41
2023-04-19T04:23:14.387Z,8.42
2023-04-19T04:28:24.402Z,8.36
2023-04-19T04:33:27.983Z,8.27
2023-04-19T04:38:32.472Z,8.22
2023-04-19T04:43:36.819Z,8.05
2023-04-19T04:48:39.727Z,7.87
2023-04-19T04:53:42.564Z,7.76
2023-04-19T04:58:47.529Z,7.88
2023-04-19T05:03:57.327Z,7.77
2023-04-19T05:09:00.171Z,8.02
2023-04-19T05:14:10.006Z,7.76
2023-04-19T05:19:12.903Z,7.70
2023-04-19T05:24:21.082Z,7.68
2023-04-19T05:29:26.119Z,7.59
2023-04-19T05:34:31.459Z,7.28
2023-04-19T05:39:35.380Z,7.49
2023-04-19T05:44:39.385Z,7.30
2023-04-19T05:49:43.399Z,7.41
2023-04-19T05:55:02.470Z,7.26
2023-04-19T06:00:09.718Z,7.29
2023-04-19T06:05:35.830Z,7.33
2023-04-19T06:10:51.880Z,7.37
2023-04-19T06:15:57.396Z,7.56
2023-04-19T06:21:00.061Z,7.24
2023-04-19T06:26:02.735Z,7.23
2023-04-19T06:31:06.908Z,7.54
2023-04-19T06:36:10.582Z,8.04
2023-04-19T06:41:13.303Z,8.08
2023-04-19T06:46:17.380Z,8.07
2023-04-19T06:51:20.138Z,8.11
2023-04-19T06:56:41.563Z,8.01
2023-04-19T07:01:45.672Z,8.02
2023-04-19T07:06:49.914Z,8.43
2023-04-19T07:11:52.612Z,8.44
2023-04-19T07:16:56.794Z,8.43
2023-04-19T07:21:59.514Z,8.51
2023-04-19T07:27:02.735Z,8.35
2023-04-19T07:32:06.958Z,8.48
2023-04-19T07:37:09.671Z,8.40
2023-04-19T07:42:12.348Z,8.74
2023-04-19T07:47:16.401Z,8.81
2023-04-19T07:52:19.109Z,8.90
2023-04-19T07:57:21.805Z,8.86
2023-04-19T08:02:26.986Z,8.92
2023-04-19T08:07:29.705Z,9.25
2023-04-19T08:12:40.580Z,9.49
2023-04-19T08:17:47.175Z,9.65
2023-04-19T08:22:49.942Z,9.63
2023-04-19T08:27:52.719Z,9.82
2023-04-19T08:32:57.376Z,10.13
2023-04-19T08:38:02.007Z,9.77
2023-04-19T08:43:06.788Z,9.98
2023-04-19T08:48:12.588Z,10.34
2023-04-19T08:53:24.839Z,10.42
2023-04-19T08:58:45.664Z,10.59
2023-04-19T09:04:09.568Z,10.59
2023-04-19T09:14:27.270Z,11.15
2023-04-19T09:19:46.679Z,11.11
2023-04-19T09:29:55.679Z,11.47
2023-04-19T09:35:00.952Z,11.58
2023-04-19T09:40:22.890Z,11.45
2023-04-19T09:45:30.507Z,11.92
2023-04-19T09:50:50.324Z,11.81
2023-04-19T09:56:02.050Z,11.97
2023-04-19T10:01:14.921Z,12.20
2023-04-19T10:11:27.839Z,12.29
2023-04-19T10:16:31.579Z,11.87
2023-04-19T10:21:36.572Z,12.54
2023-04-19T10:27:11.190Z,12.70
2023-04-19T10:32:14.823Z,12.83
2023-04-19T10:37:19.023Z,12.58
2023-04-19T10:42:21.848Z,12.83
2023-04-19T10:47:42.445Z,13.03
2023-04-19T10:52:46.597Z,13.38
2023-04-19T10:58:08.165Z,13.21
2023-04-19T11:03:53.579Z,13.13
2023-04-19T11:08:58.251Z,13.96
2023-04-19T11:14:02.442Z,13.83
2023-04-19T11:19:05.131Z,13.92
2023-04-19T11:24:10.024Z,13.39
2023-04-19T11:29:13.003Z,14.22
2023-04-19T11:34:16.124Z,13.22
2023-04-19T11:39:21.381Z,14.33
2023-04-19T11:44:24.081Z,14.60
2023-04-19T11:49:27.348Z,14.21
2023-04-19T11:54:31.363Z,14.22
2023-04-19T11:59:35.662Z,14.45
2023-04-19T12:04:38.951Z,15.04
2023-04-19T12:09:43.025Z,14.97
2023-04-19T12:14:53.034Z,15.19
2023-04-19T12:19:55.670Z,15.10
2023-04-19T12:25:00.042Z,15.03
2023-04-19T12:30:02.668Z,14.75
2023-04-19T12:35:06.779Z,15.27
2023-04-19T12:40:12.407Z,15.33
2023-04-19T12:45:15.214Z,15.55
2023-04-19T12:50:17.886Z,14.74
2023-04-19T12:55:21.945Z,14.80
2023-04-19T13:00:24.734Z,15.19
2023-04-19T13:05:27.418Z,15.66
2023-04-19T13:10:31.447Z,15.75
2023-04-19T13:15:34.139Z,15.92
2023-04-19T13:20:36.823Z,15.08
2023-04-19T13:25:40.837Z,15.22
2023-04-19T13:30:43.497Z,15.25
2023-04-19T13:35:46.236Z,15.45
2023-04-19T13:40:50.769Z,15.54
2023-04-19T13:45:53.842Z,15.62
2023-04-19T13:50:56.914Z,15.71
2023-04-19T13:56:01.113Z,15.46
2023-04-19T14:01:03.961Z,15.26
2023-04-19T14:06:07.049Z,15.22
2023-04-19T14:11:11.306Z,15.26
2023-04-19T14:16:14.010Z,15.50
2023-04-19T14:21:16.698Z,15.32
2023-04-19T14:26:20.738Z,14.73
2023-04-19T14:31:23.502Z,15.25
2023-04-19T14:36:26.595Z,14.73
2023-04-19T14:41:30.697Z,15.24
2023-04-19T14:46:33.421Z,15.46
2023-04-19T14:51:36.135Z,14.56
2023-04-19T14:56:40.170Z,14.54
2023-04-19T15:01:42.933Z,14.92
2023-04-19T15:06:46.051Z,14.74
2023-04-19T15:11:50.124Z,14.66
2023-04-19T15:16:52.784Z,14.40
2023-04-19T15:21:55.653Z,14.62
2023-04-19T15:26:59.978Z,14.58
2023-04-19T15:32:04.559Z,14.41
2023-04-19T15:37:08.077Z,14.00
2023-04-19T15:42:12.204Z,14.01
2023-04-19T15:47:14.870Z,13.60
2023-04-19T15:52:18.853Z,14.10
2023-04-19T15:57:22.934Z,13.66
2023-04-19T16:02:26.075Z,13.99
2023-04-19T16:07:28.904Z,14.18
2023-04-19T16:12:32.970Z,13.91
2023-04-19T16:17:35.770Z,13.69
2023-04-19T16:22:38.563Z,13.64
2023-04-19T16:27:44.036Z,13.66
2023-04-19T16:32:46.800Z,13.47
2023-04-19T16:37:49.675Z,13.19
2023-04-19T16:42:53.728Z,13.22
2023-04-19T16:47:56.418Z,13.09
2023-04-19T16:53:02.078Z,13.15
2023-04-19T16:58:06.270Z,13.03
2023-04-19T17:03:10.210Z,12.73
2023-04-19T17:08:13.020Z,12.81
2023-04-19T17:13:17.067Z,12.80
2023-04-19T17:18:19.781Z,12.49
2023-04-19T17:23:22.504Z,12.55
2023-04-19T17:28:27.611Z,12.49
2023-04-19T17:33:30.294Z,12.31
2023-04-19T17:38:33.094Z,11.97
2023-04-19T17:43:37.201Z,12.04
2023-04-19T17:48:39.948Z,12.33
2023-04-19T17:53:42.700Z,12.14
2023-04-19T17:58:46.834Z,12.14
2023-04-19T18:03:49.743Z,12.01
2023-04-19T18:08:52.537Z,11.86
2023-04-19T18:13:56.795Z,11.78
2023-04-19T18:18:59.565Z,11.73
2023-04-19T18:24:02.300Z,11.63
2023-04-19T18:29:06.429Z,11.36
2023-04-19T18:34:11.919Z,11.35
2023-04-19T18:39:15.404Z,11.08
2023-04-19T18:44:44.326Z,11.08
2023-04-19T18:49:46.113Z,10.87
2023-04-19T18:55:00.966Z,10.69
2023-04-19T19:00:06.714Z,10.53
2023-04-19T19:05:13.431Z,10.39
2023-04-19T19:10:20.812Z,10.22
2023-04-19T19:15:27.285Z,10.24
2023-04-19T19:20:30.200Z,10.05
2023-04-19T19:25:33.218Z,9.94
2023-04-19T19:30:39.722Z,9.93
2023-04-19T19:35:42.829Z,9.83
2023-04-19T19:45:52.596Z,9.73
2023-04-19T19:51:25.034Z,9.64
2023-04-19T19:56:21.881Z,9.56
2023-04-19T20:01:28.081Z,9.47
2023-04-19T20:11:38.453Z,9.48
2023-04-19T20:16:42.712Z,9.35
2023-04-19T20:21:46.011Z,9.39
2023-04-19T20:26:48.751Z,9.30
2023-04-19T20:31:52.965Z,9.19
2023-04-19T20:36:55.663Z,9.19
2023-04-19T20:41:58.366Z,9.16
2023-04-19T20:47:02.421Z,9.18
2023-04-19T20:52:06.421Z,9.11
2023-04-19T20:57:09.860Z,9.00
2023-04-19T21:02:13.944Z,8.98
2023-04-19T21:07:16.954Z,8.92
2023-04-19T21:12:19.656Z,8.88
2023-04-19T21:17:23.935Z,8.76
2023-04-19T21:22:26.795Z,8.79
2023-04-19T21:27:30.204Z,8.71
2023-04-19T21:32:34.577Z,8.69
2023-04-19T21:37:37.700Z,8.59
2023-04-19T21:42:40.496Z,8.50
2023-04-19T21:47:44.539Z,8.48
2023-04-19T21:52:47.323Z,8.45
2023-04-19T21:57:50.163Z,8.48
2023-04-19T22:02:54.377Z,8.40
2023-04-19T22:07:57.841Z,8.49
2023-04-19T22:13:02.371Z,8.41
2023-04-19T22:18:06.593Z,8.46
2023-04-19T22:23:09.369Z,8.44
2023-04-19T22:28:12.074Z,8.38
2023-04-19T22:33:16.138Z,8.09
2023-04-19T22:38:18.914Z,8.01
2023-04-19T22:43:22.724Z,7.87
2023-04-19T22:48:28.039Z,8.01
2023-04-19T22:53:30.831Z,8.06
2023-04-19T22:58:33.555Z,7.93
2023-04-19T23:03:37.712Z,8.27
2023-04-19T23:08:41.395Z,8.26
2023-04-19T23:13:44.360Z,8.23
2023-04-19T23:18:48.493Z,8.26
2023-04-19T23:23:51.321Z,8.24
2023-04-19T23:28:54.122Z,8.19
2023-04-19T23:33:58.169Z,8.29
2023-04-19T23:39:01.138Z,8.12
2023-04-19T23:44:03.890Z,7.92
2023-04-19T23:49:08.625Z,7.90
2023-04-19T23:54:11.482Z,7.88
2023-04-19T23:59:14.215Z,7.68
